Terminal Aerodrome Forecast
Issued by NWS St Louis, MO

Home | Current Version | Previous Version | Text Only | Print | Product List | Glossary On
Versions: 1 2 3 4 5 6 7 8 9 10 11 12 13 14 15 16 17 18 19 20 21 22 23 24 25 26 27 28 29 30 31
000
FTUS43 KLSX 241400 AAA
TAFSTL
TAF AMD
KSTL 241427Z 2414/2518 28020G30KT P6SM OVC025
     FM242200 28015G25KT P6SM SCT015 OVC040
     FM250400 27009KT P6SM SCT050=

USA.gov is the U.S. government's official web portal to all federal, state and local government web resources and services.